James City, Pennsylvania
Current Conditions -  °F | °C
As of 5:32 AM on Tuesday 27 Jan 2015 (Local Time) from KBFD Reporting Station
Light Snow Light Snow  
Wind Chill:   Ceiling: 4700
Heat Index: 12°   Visibility: 2.5mi
Dew Point:   Wind: 6mph
Humidity: 80%   Direction: 360°N
Pressure: 29.76"   Gusts: NA
Location:  41.62°N, 78.84°W
Report Text: KBFD 271032Z AUTO 36005KT 2 1/2SM -SN BKN047 OVC060 M11/M14 A2976 RMK AO2 P0000 T11111139
Loading
Personal Weather Stations






























Interactive Weather Map New forecast layout! Learn more

10-Day Weather Forecast

Advertisements
Track Severe Weather on mobile